Ras Al Khaimah International Airport

Airport
ICAO code: 
OMRK
IATA Code: 
RKT
Summary
ICAO Region: 
MID
Location: 
Ras Al Khaimah,
Serving: 
Ras Al Khaimah
Elevation: 
102 ft
Coordinates: 
Aerial View: 
25° 36' 57.081" N, 55° 56' 21.786" E
Metar
Observation
OMRK 190800Z 34006KT 8000 FEW040 24/20 Q1018 A3007
Station
Ras Al Khaimah International Airport
Date/Time
2022-01-19 08:00:00
Wind direction
340°
Wind speed
06 kts
Lowest cloud amount
few clouds
Temperature
24°C
Dew point
20°C
Humidity
78%
QNH
1018 hPa
Weather condition
n/a

Description

Khaimah International Airport is located 15 km

Climatology

Hot Desert Climate (Köppen climate classification BWh) - Hot desert climates are typically found in the subtropics where there is unbroken sunshine for the whole year due to the stable descending air and high pressure, little or no precipitation. Maximum temperatures of 40°C to 45°C are not uncommon, particularly during the warmer months of the year. During colder periods of the year, night-time temperatures can drop to freezing or below due to the exceptional radiation loss under the clear skies. However, very rarely do temperatures drop far below freezing.

Runways

Designator Length Width Surface Rops
16/34 3760 45 ASP Yes/Yes
Airport map: 
Aerial View: 

SKYbrary Partners:

Safety knowledge contributed by: